Spearfish, SD

6:11 AM MST on January 16, 2018 (GMT -0700)
Black Hills-Ice | | Change Station
Active Advisory: Wind Chill Advisory

Elev 3930 ft 44.48 °N, 103.78 °W | Updated -221 second ago

Clear
Clear
1 °F
Feels Like -6 °F
N
4
Wind Variable Wind from SW

Today
High -- | Low -- °F
--% Chance of Precip.
Yesterday
High -- | Low -- °F
Precip. -- in
Pressure 30.45 in
Visibility 10.0 miles
Clouds
Windchill -6 °F
Dew Point -8 °F
Humidity 66%
Rainfall 0.00 in
Snow Depth Not available.
7:27 AM 4:42 PM
Waning Crescent, 0% visible
METAR KSPF 161315Z AUTO 23003KT 10SM M17/M22 A3045 RMK AO2
Pressure 30.45 in
Visibility 10.0 miles
Clouds
Windchill -6 °F
Dew Point -8 °F
Humidity 66%
Rainfall 0.00 in
Snow Depth Not available.
7:27 AM 4:42 PM
Waning Crescent, 0% visible
METAR KSPF 161315Z AUTO 23003KT 10SM M17/M22 A3045 RMK AO2

Get Your Daily Forecast Email!

Thanks for signing up!

Be on the lookout for a verification email in your inbox.

You'll start receiving severe weather alerts in your inbox..

×

10-Day Weather Forecast

Almanac

Astronomy

Jan. 16, 2018 Rise Set
Actual Time
Civil Twilight
Nautical Twilight
Astronomical Twilight
Moon
Length of Visible Light
Length of Day
Tomorrow will be .
, % of the Moon is Illuminated

Today's Extremes

State Highs State Lows

Community

WunderPhotos

Category 6

Welcome to Category 6. This is the collective home for Weather Underground's featured writeups by Dr. Jeff Masters (right), Bob Henson (left), Chris Burt, and other regular contributors.

Nearby

Air Quality

  Air Quality AQ Index Pollutant
Not available.

Snow Depth

Station Depth Elevation

Earthquake Activity

City Distance Mag. Time & Date
Minimum magnitude displayed is 2.5.

Coastal Water Temperatures

Place Temperature

Stations

Nearby Weather Stations

Station Location Temp. Windchill Dew Point Humidity Wind Precip. Elev Updated Type
                   

Watches & Warnings

Wind Chill Advisory
Issued: 3:13 AM CST Jan. 16, 2018 – National Weather Service

... Wind Chill Advisory remains in effect until 11 am MST /noon
CST/ this morning...

* what... very cold wind chills will occur tonight into Tuesday
morning. Wind chills will range from 15 below zero to 35 below
zero. The cold wind chills will cause frostbite in as little as
30 minutes to exposed skin.

* Where... parts of northeastern Wyoming and most of western South
Dakota.

* When... until 11 am MST /noon CST/ today.

Precautionary/preparedness actions...

A Wind Chill Advisory means the combination of wind and cold
temperatures will create dangerously low wind chill values. If
you go outside, cover all parts of your body, especially your
head, face, and hands.